Time;durP1;ratioP1;P1;durP2;ratioP2;P2;SDS_P1;SDS_P2;PMS_P1;PMS_P2;Temp;Humidity;BMP_temperature;BMP_pressure;BME280_temperature;BME280_humidity;BME280_pressure;Samples;Min_cycle;Max_cycle;Signal;HPM_P1;HPM_P2
2021/06/23 00:02:10;;;;;;;7.65;3.47;;;;;;;14.84;45.83;95659.53;5070301;28;20112;-69
2021/06/23 00:04:36;;;;;;;5.20;3.50;;;;;;;14.82;45.85;95660.75;5076345;28;20111;-69
2021/06/23 00:07:01;;;;;;;9.88;3.75;;;;;;;14.71;45.80;95652.25;5072515;28;20092;-69
2021/06/23 00:09:26;;;;;;;4.65;3.33;;;;;;;14.77;45.79;95652.50;5075953;28;20105;-69
2021/06/23 00:11:53;;;;;;;6.38;3.10;;;;;;;14.85;45.69;95663.00;5073071;28;20085;-69
2021/06/23 00:14:19;;;;;;;6.70;3.20;;;;;;;14.88;45.29;95659.94;5077139;28;20100;-69
2021/06/23 00:16:45;;;;;;;7.65;3.15;;;;;;;14.79;45.86;95655.81;5055617;28;20439;-69
2021/06/23 00:19:10;;;;;;;5.78;3.28;;;;;;;;;;5061984;28;20263;-69
2021/06/23 00:21:35;;;;;;;7.80;3.40;;;;;;;14.68;46.23;95654.50;5072733;28;20188;-69
2021/06/23 00:24:01;;;;;;;4.35;3.20;;;;;;;14.67;45.99;95658.22;5049507;28;20072;-69
2021/06/23 00:26:26;;;;;;;7.07;3.58;;;;;;;14.70;46.11;95657.81;5067381;28;20109;-69
2021/06/23 00:28:52;;;;;;;6.60;3.20;;;;;;;14.66;45.67;95656.56;5067634;28;20100;-69
2021/06/23 00:31:18;;;;;;;5.93;3.08;;;;;;;14.63;45.96;95655.13;5068720;28;20190;-69
2021/06/23 00:33:44;;;;;;;7.10;2.95;;;;;;;14.67;45.63;95659.06;5070015;28;20105;-69
2021/06/23 00:36:09;;;;;;;6.32;3.10;;;;;;;14.77;45.83;95657.84;5051010;28;20491;-69
2021/06/23 00:38:35;;;;;;;4.95;3.40;;;;;;;14.77;45.87;95660.53;5070233;28;20117;-69
2021/06/23 00:41:00;;;;;;;9.00;2.80;;;;;;;14.82;45.40;95658.88;5071565;28;20121;-69
2021/06/23 00:43:26;;;;;;;5.10;3.00;;;;;;;14.85;45.72;95654.97;5070633;28;20113;-69
2021/06/23 00:45:51;;;;;;;5.57;2.72;;;;;;;14.90;45.53;95657.88;5051558;28;20112;-69
2021/06/23 00:48:21;;;;;;;4.32;3.00;;;;;;;14.89;45.66;95658.09;5071977;28;20077;-69
2021/06/23 00:50:48;;;;;;;6.85;3.30;;;;;;;14.83;45.52;95667.75;5045185;28;20482;-69
2021/06/23 00:53:13;;;;;;;7.97;3.53;;;;;;;14.79;45.62;95661.16;5059558;28;20109;-69
2021/06/23 00:55:39;;;;;;;5.90;3.25;;;;;;;14.67;46.02;95658.22;5064886;28;20373;-69
2021/06/23 00:58:04;;;;;;;7.05;3.03;;;;;;;14.57;46.33;95647.88;5070677;28;20115;-69
2021/06/23 01:00:31;;;;;;;5.13;3.15;;;;;;;14.52;46.69;95647.69;5059613;28;20072;-69
2021/06/23 01:02:56;;;;;;;5.05;2.85;;;;;;;14.10;47.38;95648.56;5056946;28;20497;-69
2021/06/23 01:05:22;;;;;;;5.65;2.80;;;;;;;14.44;46.42;95646.00;5051567;28;20571;-69
2021/06/23 01:07:47;;;;;;;5.63;3.28;;;;;;;14.52;46.60;95666.44;5055986;28;20076;-70
2021/06/23 01:10:13;;;;;;;5.65;2.75;;;;;;;14.66;45.73;95661.94;5034956;28;20101;-69
2021/06/23 01:13:17;;;;;;;5.80;3.08;;;;;;;14.68;45.87;95655.34;5039712;28;20168;-69
2021/06/23 01:15:43;;;;;;;9.27;3.60;;;;;;;14.47;46.78;95653.63;5055589;28;20103;-69
2021/06/23 01:18:09;;;;;;;5.70;3.08;;;;;;;14.58;46.11;95655.72;5061278;28;20109;-69
2021/06/23 01:20:41;;;;;;;5.40;2.65;;;;;;;14.66;45.72;95660.09;5054341;28;20107;-68
2021/06/23 01:23:07;;;;;;;6.68;3.30;;;;;;;14.68;45.46;95652.66;5047413;28;20070;-69
2021/06/23 01:25:32;;;;;;;6.20;2.80;;;;;;;14.76;45.25;95650.84;5051007;28;20454;-69
2021/06/23 01:27:58;;;;;;;6.13;3.30;;;;;;;14.67;45.32;95652.84;5045796;28;20500;-69
2021/06/23 01:30:23;;;;;;;4.07;2.60;;;;;;;14.69;45.14;95667.69;5050835;28;20092;-69
2021/06/23 01:32:49;;;;;;;5.70;3.20;;;;;;;14.71;45.26;95670.19;5055022;28;20081;-69
2021/06/23 01:35:15;;;;;;;6.20;3.00;;;;;;;14.68;45.03;95679.44;5031265;28;20130;-69
2021/06/23 01:37:41;;;;;;;3.80;2.80;;;;;;;14.69;45.45;95691.81;5046170;28;20154;-69
2021/06/23 01:40:07;;;;;;;3.15;2.80;;;;;;;14.77;45.22;95695.38;5035447;28;20104;-69
2021/06/23 01:42:32;;;;;;;5.63;2.85;;;;;;;14.68;45.42;95681.28;5042560;28;20121;-69
2021/06/23 01:44:59;;;;;;;5.82;3.40;;;;;;;14.74;44.91;95687.72;5067674;28;20116;-69
2021/06/23 01:47:24;;;;;;;5.60;3.10;;;;;;;14.65;45.76;95681.72;5055388;28;20077;-69
2021/06/23 01:49:50;;;;;;;7.88;2.90;;;;;;;14.70;45.32;95684.59;5051418;28;20150;-69
2021/06/23 01:52:15;;;;;;;5.45;3.10;;;;;;;14.65;45.41;95671.81;5049094;28;20541;-69
2021/06/23 01:54:42;;;;;;;7.07;3.10;;;;;;;14.72;45.07;95677.16;5052601;28;20561;-69
2021/06/23 01:57:11;;;;;;;5.47;2.85;;;;;;;14.71;45.26;95683.56;5047927;28;20524;-69
2021/06/23 01:59:37;;;;;;;5.82;2.92;;;;;;;14.75;44.87;95681.34;5054962;28;20076;-69
2021/06/23 02:02:15;;;;;;;6.38;3.60;;;;;;;14.61;45.33;95677.78;5048108;28;20159;-69
2021/06/23 02:04:50;;;;;;;7.72;3.10;;;;;;;14.57;45.31;95675.50;5054167;28;20076;-69
2021/06/23 02:07:24;;;;;;;7.20;3.20;;;;;;;14.48;45.28;95681.25;5060063;28;20089;-69
2021/06/23 02:10:00;;;;;;;7.22;3.67;;;;;;;14.44;45.62;95689.69;5052122;28;20123;-69
2021/06/23 02:12:25;;;;;;;5.47;3.00;;;;;;;14.68;45.05;95694.69;5053002;28;20565;-69
2021/06/23 02:14:52;;;;;;;8.00;2.95;;;;;;;14.74;44.84;95693.09;5053364;28;20133;-69
2021/06/23 02:17:17;;;;;;;4.63;2.83;;;;;;;14.70;45.58;95693.47;5036657;28;20196;-69
2021/06/23 02:19:44;;;;;;;6.75;3.08;;;;;;;14.67;45.50;95688.53;5054617;28;20070;-69
2021/06/23 02:22:12;;;;;;;5.37;2.80;;;;;;;14.71;44.89;95699.66;5066438;28;20101;-69
2021/06/23 02:24:37;;;;;;;8.38;2.92;;;;;;;14.82;44.73;95699.09;5030826;28;20322;-69
2021/06/23 02:27:03;;;;;;;4.55;2.65;;;;;;;14.76;45.22;95701.75;5047934;28;20077;-69
2021/06/23 02:29:30;;;;;;;6.28;3.05;;;;;;;14.67;45.81;95699.25;5044862;28;20192;-69
2021/06/23 02:31:55;;;;;;;8.45;3.08;;;;;;;14.66;45.64;95697.59;5043329;28;20162;-69
2021/06/23 02:34:21;;;;;;;7.28;3.20;;;;;;;14.68;45.10;95697.38;5054118;28;20109;-69
2021/06/23 02:36:46;;;;;;;7.50;2.88;;;;;;;14.79;44.76;95698.69;5058215;28;20084;-69
2021/06/23 02:39:12;;;;;;;7.25;3.05;;;;;;;14.76;44.53;95691.88;5048989;28;20083;-69
2021/06/23 02:41:37;;;;;;;6.80;3.08;;;;;;;14.69;44.87;95691.00;5047394;28;20105;-69
2021/06/23 02:44:03;;;;;;;4.68;2.50;;;;;;;14.82;44.38;95700.97;5045554;28;20617;-69
2021/06/23 02:46:29;;;;;;;6.90;3.00;;;;;;;14.83;44.53;95699.94;5015048;28;20101;-69
2021/06/23 02:48:54;;;;;;;4.55;2.80;;;;;;;14.78;45.01;95710.41;5029475;28;20374;-69
2021/06/23 02:51:20;;;;;;;7.43;2.85;;;;;;;14.65;45.25;95708.50;5050599;28;20632;-69
2021/06/23 02:53:50;;;;;;;6.00;2.80;;;;;;;14.77;45.36;95703.41;5054752;28;20112;-69
2021/06/23 02:56:16;;;;;;;6.28;2.97;;;;;;;14.70;45.53;95700.69;5063898;28;20479;-69
2021/06/23 02:58:42;;;;;;;7.47;3.13;;;;;;;14.70;44.97;95695.31;5058856;28;20402;-69
2021/06/23 03:01:07;;;;;;;6.70;2.90;;;;;;;14.62;45.62;95698.19;5049578;28;20113;-69
2021/06/23 03:03:32;;;;;;;6.35;3.22;;;;;;;14.61;45.90;95700.03;5052670;28;20107;-69
2021/06/23 03:06:02;;;;;;;8.80;3.33;;;;;;;14.69;44.98;95701.72;5058134;28;20115;-69
2021/06/23 03:08:28;;;;;;;4.82;2.90;;;;;;;14.61;45.69;95693.88;5036574;28;20130;-69
2021/06/23 03:10:54;;;;;;;9.00;3.33;;;;;;;14.49;45.60;95688.25;5023414;28;20112;-69
2021/06/23 03:13:20;;;;;;;6.38;2.95;;;;;;;14.51;45.39;95687.03;5053568;28;20608;-69
2021/06/23 03:15:45;;;;;;;7.70;3.13;;;;;;;14.44;45.84;95686.16;5064949;28;20084;-69
2021/06/23 03:18:10;;;;;;;5.65;2.80;;;;;;;14.52;45.42;95694.03;5056097;28;20109;-69
2021/06/23 03:20:36;;;;;;;6.60;2.88;;;;;;;14.56;45.59;95691.78;5063536;28;20080;-69
2021/06/23 03:23:01;;;;;;;5.13;3.10;;;;;;;14.51;46.22;95694.25;5057867;28;20080;-69
2021/06/23 03:25:27;;;;;;;5.45;2.95;;;;;;;14.59;45.50;95694.06;5061179;28;20133;-69
2021/06/23 03:27:53;;;;;;;6.13;2.80;;;;;;;14.59;45.52;95696.75;5030597;28;20081;-69
2021/06/23 03:30:20;;;;;;;5.50;2.80;;;;;;;14.64;45.29;95688.91;5060493;28;20113;-69
2021/06/23 03:32:48;;;;;;;9.50;2.92;;;;;;;14.72;44.98;95699.44;5043887;28;20127;-69
2021/06/23 03:35:13;;;;;;;5.85;2.95;;;;;;;14.72;45.10;95694.09;5064158;28;20139;-69
2021/06/23 03:37:39;;;;;;;7.07;2.67;;;;;;;14.84;44.98;95697.03;5061454;28;20124;-69
2021/06/23 03:40:04;;;;;;;9.65;3.25;;;;;;;;;;5059037;28;20100;-69
2021/06/23 03:42:29;;;;;;;6.30;2.75;;;;;;;14.79;45.10;95696.00;5048989;28;20125;-69
2021/06/23 03:44:55;;;;;;;5.85;2.75;;;;;;;14.75;45.24;95702.78;5051704;28;20108;-69
2021/06/23 03:47:20;;;;;;;5.00;2.75;;;;;;;14.77;45.29;95701.56;5050627;28;20081;-69
2021/06/23 03:49:46;;;;;;;5.03;2.70;;;;;;;14.74;44.84;95699.28;5052316;28;20112;-69
2021/06/23 03:52:11;;;;;;;6.80;2.90;;;;;;;;;;5051178;28;20077;-69
2021/06/23 03:54:36;;;;;;;6.03;3.03;;;;;;;14.83;44.89;95702.59;5055032;28;20436;-69
2021/06/23 03:57:03;;;;;;;5.65;2.80;;;;;;;14.78;44.62;95695.16;5050540;28;20113;-69
2021/06/23 03:59:28;;;;;;;6.43;2.88;;;;;;;14.76;44.46;95704.44;5054729;28;20517;-69
2021/06/23 04:01:53;;;;;;;5.32;2.65;;;;;;;14.79;44.59;95709.41;5053833;28;20429;-69
2021/06/23 04:04:19;;;;;;;9.63;3.30;;;;;;;14.54;44.70;95702.69;5058143;28;20069;-69
2021/06/23 04:06:44;;;;;;;3.92;2.60;;;;;;;14.61;45.57;95702.72;5054904;28;20105;-69
2021/06/23 04:09:10;;;;;;;8.15;3.13;;;;;;;14.63;45.29;95713.22;5057931;28;20593;-69
2021/06/23 04:11:35;;;;;;;7.60;3.00;;;;;;;14.75;45.05;95713.50;5054641;28;20496;-69
2021/06/23 04:14:01;;;;;;;6.68;2.70;;;;;;;14.68;45.06;95716.97;5062337;28;20527;-69
2021/06/23 04:16:27;;;;;;;5.97;2.80;;;;;;;14.68;45.46;95714.28;5050287;28;20070;-69
2021/06/23 04:18:52;;;;;;;5.32;2.55;;;;;;;14.77;44.84;95712.28;5048537;28;20613;-69
2021/06/23 04:21:18;;;;;;;7.82;3.08;;;;;;;14.89;44.77;95709.81;5057420;28;20187;-69
2021/06/23 04:23:43;;;;;;;7.72;3.25;;;;;;;14.70;44.87;95711.41;5050978;28;20069;-69
2021/06/23 04:26:09;;;;;;;7.07;3.05;;;;;;;14.54;46.18;95713.41;5051849;28;20105;-69
2021/06/23 04:28:34;;;;;;;7.28;3.00;;;;;;;14.61;45.53;95713.44;5050516;28;20111;-69
2021/06/23 04:31:00;;;;;;;8.07;2.92;;;;;;;14.55;45.90;95706.22;5056934;28;20408;-69
2021/06/23 04:33:25;;;;;;;6.65;2.80;;;;;;;14.66;45.54;95705.63;5068901;28;20373;-69
2021/06/23 04:35:51;;;;;;;5.20;2.72;;;;;;;14.57;46.06;95709.50;5049076;28;20520;-69
2021/06/23 04:38:17;;;;;;;4.38;2.60;;;;;;;14.76;45.74;95717.84;5033002;28;21786;-69
2021/06/23 04:40:43;;;;;;;10.90;3.63;;;;;;;14.69;45.25;95715.91;5052027;28;20136;-69
2021/06/23 04:43:08;;;;;;;3.97;2.72;;;;;;;14.89;45.06;95723.22;5050834;28;20125;-69
2021/06/23 04:45:34;;;;;;;6.78;2.90;;;;;;;15.04;44.85;95722.22;5049557;28;20133;-69
2021/06/23 04:47:59;;;;;;;4.75;2.70;;;;;;;15.13;44.68;95720.97;5052452;28;20092;-69
2021/06/23 04:50:25;;;;;;;5.82;2.90;;;;;;;15.21;44.63;95723.50;5051074;28;20589;-69
2021/06/23 04:52:50;;;;;;;6.82;3.00;;;;;;;15.33;44.12;95730.94;5051696;28;20397;-69
2021/06/23 04:55:18;;;;;;;7.68;2.92;;;;;;;15.39;44.12;95722.03;5052261;28;20147;-69
2021/06/23 04:57:44;;;;;;;6.35;3.28;;;;;;;15.24;44.31;95727.63;5052485;28;20109;-70
2021/06/23 05:00:10;;;;;;;6.97;3.03;;;;;;;15.45;44.25;95731.97;5053898;28;20108;-69
2021/06/23 05:02:35;;;;;;;5.68;2.80;;;;;;;15.54;43.85;95726.38;5051854;28;20163;-69
2021/06/23 05:05:01;;;;;;;5.90;3.10;;;;;;;15.69;43.74;95720.81;5055790;28;20450;-69
2021/06/23 05:07:26;;;;;;;7.70;3.35;;;;;;;15.76;43.57;95718.94;5035910;28;20104;-69
2021/06/23 05:09:51;;;;;;;7.40;3.00;;;;;;;15.74;43.41;95715.66;5056221;28;20108;-69
2021/06/23 05:12:17;;;;;;;5.75;3.42;;;;;;;15.83;43.09;95716.25;5053499;28;20089;-69
2021/06/23 05:14:43;;;;;;;7.25;2.90;;;;;;;16.07;42.72;95717.44;5055326;28;20196;-69
2021/06/23 05:17:08;;;;;;;6.55;3.08;;;;;;;16.09;42.79;95718.06;5052544;28;20101;-69
2021/06/23 05:19:37;;;;;;;8.15;3.13;;;;;;;16.19;42.55;95716.78;5061471;28;20389;-69
2021/06/23 05:22:03;;;;;;;6.55;3.25;;;;;;;16.27;42.42;95724.59;5025015;28;20105;-70
2021/06/23 05:24:31;;;;;;;4.78;2.88;;;;;;;16.57;42.10;95723.28;5053477;28;20093;-70
2021/06/23 05:26:56;;;;;;;6.25;3.05;;;;;;;16.55;41.81;95722.69;5037561;28;20118;-70
2021/06/23 05:29:22;;;;;;;8.23;3.38;;;;;;;16.67;41.82;95715.59;5047021;28;20112;-69
2021/06/23 05:31:47;;;;;;;6.75;3.40;;;;;;;16.79;40.91;95722.97;5052743;28;20125;-70
2021/06/23 05:34:12;;;;;;;5.65;3.00;;;;;;;16.88;41.37;95727.88;5046356;28;20113;-69
2021/06/23 05:36:38;;;;;;;8.52;3.20;;;;;;;16.86;41.57;95726.47;5032322;28;20123;-70
2021/06/23 05:39:04;;;;;;;6.82;3.00;;;;;;;17.07;41.08;95727.16;5053044;28;20130;-70
2021/06/23 05:41:29;;;;;;;7.20;3.40;;;;;;;17.20;41.08;95727.06;5050381;28;20105;-70
2021/06/23 05:43:55;;;;;;;7.72;3.38;;;;;;;17.51;40.63;95733.47;5049128;28;20121;-70
2021/06/23 05:46:20;;;;;;;6.70;2.90;;;;;;;17.56;40.46;95735.50;5062426;28;20116;-70
2021/06/23 05:48:46;;;;;;;8.18;3.63;;;;;;;17.65;40.34;95736.88;5041449;28;23067;-70
2021/06/23 05:51:11;;;;;;;8.10;3.75;;;;;;;17.79;39.66;95734.88;5044622;28;20541;-70
2021/06/23 05:53:37;;;;;;;9.43;4.20;;;;;;;17.57;40.05;95733.66;5044748;28;20117;-70
2021/06/23 05:56:02;;;;;;;9.40;3.72;;;;;;;17.74;40.17;95732.03;5056152;28;20544;-70
2021/06/23 05:58:28;;;;;;;7.93;4.20;;;;;;;17.77;39.89;95745.06;5051124;28;20106;-70
2021/06/23 06:00:53;;;;;;;11.10;4.20;;;;;;;17.84;40.14;95754.97;5050081;28;20627;-70
2021/06/23 06:03:19;;;;;;;9.43;4.30;;;;;;;17.77;39.44;95755.00;5051491;28;20100;-70
2021/06/23 06:05:46;;;;;;;9.55;5.18;;;;;;;17.78;39.67;95754.78;5047032;28;20101;-70
2021/06/23 06:08:11;;;;;;;9.82;4.07;;;;;;;17.98;39.80;95751.09;5048245;28;20194;-71
2021/06/23 06:10:36;;;;;;;7.88;4.40;;;;;;;17.86;40.30;95751.03;5043049;28;20343;-70
2021/06/23 06:13:02;;;;;;;8.50;4.60;;;;;;;18.15;39.79;95748.66;5048687;28;20112;-70
2021/06/23 06:15:28;;;;;;;9.23;5.20;;;;;;;18.23;39.23;95752.94;5039707;28;20092;-70
2021/06/23 06:17:53;;;;;;;11.63;5.57;;;;;;;18.33;39.42;95754.28;5050282;28;20120;-70
2021/06/23 06:20:18;;;;;;;8.35;4.70;;;;;;;18.51;38.83;95759.66;5046565;28;20131;-70
2021/06/23 06:22:44;;;;;;;9.98;5.57;;;;;;;18.56;38.62;95749.03;5052874;28;20101;-70
2021/06/23 06:25:10;;;;;;;15.65;11.55;;;;;;;18.15;38.41;95753.22;5051751;28;20105;-70
2021/06/23 06:27:35;;;;;;;11.82;7.53;;;;;;;18.09;39.29;95751.41;5051822;28;20085;-70
2021/06/23 06:30:01;;;;;;;20.23;13.30;;;;;;;18.02;38.75;95754.19;5048094;28;20116;-70
2021/06/23 06:32:26;;;;;;;17.85;12.48;;;;;;;17.87;38.89;95749.13;5052746;28;20100;-70
2021/06/23 06:34:52;;;;;;;17.25;11.75;;;;;;;18.13;38.89;95753.44;5047260;28;20184;-70
2021/06/23 06:37:17;;;;;;;17.20;10.98;;;;;;;18.11;39.06;95755.53;5043386;28;20109;-70
2021/06/23 06:39:43;;;;;;;17.45;13.00;;;;;;;17.87;38.92;95757.22;5047871;28;20123;-70
2021/06/23 06:42:08;;;;;;;16.25;11.82;;;;;;;18.04;39.20;95762.84;5061145;28;20104;-70
2021/06/23 06:44:34;;;;;;;16.90;12.13;;;;;;;18.11;39.37;95766.31;5051240;28;20080;-69
2021/06/23 06:46:59;;;;;;;8.73;4.68;;;;;;;18.45;39.25;95763.25;5062012;28;20165;-69
2021/06/23 06:49:29;;;;;;;16.10;10.02;;;;;;;18.68;38.26;95770.69;5047113;28;20799;-69
2021/06/23 06:51:58;;;;;;;17.48;10.45;;;;;;;18.80;37.83;95765.34;5044783;28;20069;-68
2021/06/23 06:54:24;;;;;;;16.00;12.38;;;;;;;18.98;37.69;95779.03;5045837;28;20110;-69
2021/06/23 06:56:50;;;;;;;21.45;17.20;;;;;;;19.21;37.19;95775.59;5048694;28;20109;-69
2021/06/23 06:59:18;;;;;;;14.10;9.55;;;;;;;18.99;38.10;95786.06;5048207;28;20081;-69
2021/06/23 07:01:43;;;;;;;17.58;11.02;;;;;;;19.21;37.08;95791.78;5048277;28;20191;-69
2021/06/23 07:04:08;;;;;;;16.17;11.63;;;;;;;19.30;37.24;95795.00;5050181;28;20085;-70
2021/06/23 07:06:34;;;;;;;15.75;11.02;;;;;;;19.34;37.36;95798.88;5048493;28;20105;-69
2021/06/23 07:08:59;;;;;;;14.57;9.57;;;;;;;19.53;37.15;95802.34;5049638;28;20112;-70
2021/06/23 07:11:25;;;;;;;16.45;13.43;;;;;;;19.38;36.59;95804.66;5051106;28;20088;-69
2021/06/23 07:13:50;;;;;;;15.43;10.35;;;;;;;19.39;37.14;95807.13;5036849;28;20113;-69
2021/06/23 07:16:16;;;;;;;18.50;13.63;;;;;;;19.26;37.27;95801.88;5067250;28;20274;-69
2021/06/23 07:18:42;;;;;;;15.88;11.23;;;;;;;19.62;36.52;95802.03;5039198;28;20518;-69
2021/06/23 07:21:08;;;;;;;10.57;6.43;;;;;;;19.97;36.34;95801.28;5056377;28;20473;-69
2021/06/23 07:23:33;;;;;;;16.83;9.80;;;;;;;20.07;35.57;95804.22;5046865;28;20077;-69
2021/06/23 07:25:58;;;;;;;16.83;12.35;;;;;;;19.97;35.68;95798.56;5034393;28;20105;-70
2021/06/23 07:28:40;;;;;;;13.40;8.50;;;;;;;20.22;35.44;95794.78;5047689;28;20081;-69
2021/06/23 07:31:07;;;;;;;14.57;10.70;;;;;;;20.04;35.31;95796.56;5050020;28;20504;-69
2021/06/23 07:33:34;;;;;;;10.32;7.70;;;;;;;20.18;34.96;95801.72;5053182;28;20627;-69
2021/06/23 07:38:43;;;;;;;15.43;9.77;;;;;;;20.38;35.59;95792.44;5049749;28;20214;-71
2021/06/23 07:41:09;;;;;;;13.68;8.35;;;;;;;20.91;34.19;95789.78;5052227;28;20135;-70
2021/06/23 07:43:36;;;;;;;15.73;10.20;;;;;;;21.17;33.47;95790.28;5048698;28;20121;-70
2021/06/23 07:46:03;;;;;;;17.88;13.15;;;;;;;21.05;33.86;95793.84;5045887;28;20552;-69
2021/06/23 07:48:32;;;;;;;12.30;9.25;;;;;;;21.44;33.24;95787.78;5052936;28;20081;-69
2021/06/23 07:51:12;;;;;;;11.23;5.85;;;;;;;21.55;33.39;95786.06;5048215;28;20112;-70
2021/06/23 08:10:12;;;;;;;12.43;7.20;;;;;;;22.05;32.59;95805.31;5060630;28;20573;-69
2021/06/23 08:12:19;;;;;;;10.15;7.05;;;;;;;22.06;33.02;95798.03;5046026;28;20129;-69
2021/06/23 08:14:44;;;;;;;7.95;5.50;;;;;;;21.99;32.44;95809.03;5052656;28;20135;-69
2021/06/23 08:17:10;;;;;;;8.10;4.03;;;;;;;21.73;33.04;95806.72;5052040;28;20557;-69
2021/06/23 08:19:36;;;;;;;13.50;9.93;;;;;;;20.63;34.65;95808.41;5054320;28;20485;-69
2021/06/23 08:22:01;;;;;;;13.30;7.93;;;;;;;21.08;34.90;95806.06;5041035;28;20108;-69
2021/06/23 08:24:27;;;;;;;8.50;4.28;;;;;;;21.70;33.45;95799.06;5055010;28;20454;-69
2021/06/23 08:26:52;;;;;;;11.63;5.18;;;;;;;22.11;32.69;95807.06;5048593;28;20585;-70
2021/06/23 08:29:18;;;;;;;11.98;6.82;;;;;;;22.20;32.40;95802.00;5051820;28;20116;-69
2021/06/23 08:31:43;;;;;;;10.38;5.63;;;;;;;22.44;32.74;95809.13;5055113;28;20513;-70
2021/06/23 08:34:08;;;;;;;9.80;5.65;;;;;;;22.72;31.75;95810.06;5044146;28;20437;-69
2021/06/23 08:36:34;;;;;;;7.57;3.40;;;;;;;22.41;31.68;95805.84;5046464;28;20077;-69
2021/06/23 08:38:59;;;;;;;6.82;3.22;;;;;;;22.15;32.68;95813.63;5048950;28;20323;-69
2021/06/23 08:41:29;;;;;;;8.13;3.22;;;;;;;22.50;32.02;95808.16;5048660;28;20113;-69
2021/06/23 08:43:55;;;;;;;7.45;4.03;;;;;;;22.63;31.24;95809.69;5045324;28;20224;-69
2021/06/23 08:46:21;;;;;;;10.95;7.35;;;;;;;22.60;31.58;95808.28;5046095;28;20107;-69
2021/06/23 08:48:46;;;;;;;5.47;3.45;;;;;;;22.21;32.50;95805.56;5044572;28;20453;-69
2021/06/23 08:51:12;;;;;;;5.68;3.88;;;;;;;22.16;32.60;95814.44;5046239;28;20538;-69
2021/06/23 08:53:37;;;;;;;9.57;6.82;;;;;;;22.08;32.30;95807.53;5049602;28;20105;-69
2021/06/23 08:56:04;;;;;;;8.05;4.95;;;;;;;22.26;32.47;95816.47;5046730;28;20117;-69
2021/06/23 08:58:29;;;;;;;6.47;3.63;;;;;;;21.89;33.87;95813.19;5047878;28;20109;-69
2021/06/23 09:00:55;;;;;;;7.10;3.45;;;;;;;21.36;34.23;95810.69;5049850;28;20129;-69
2021/06/23 09:03:20;;;;;;;6.10;3.33;;;;;;;21.50;35.46;95813.91;5046315;28;20507;-69
2021/06/23 09:05:53;;;;;;;5.72;3.50;;;;;;;21.19;36.14;95812.47;5053020;28;20097;-69
2021/06/23 09:08:32;;;;;;;8.30;3.50;;;;;;;21.08;36.08;95804.16;5054002;28;20092;-69
2021/06/23 09:10:58;;;;;;;7.63;3.58;;;;;;;21.07;36.75;95812.56;5052260;28;20508;-69
2021/06/23 09:13:24;;;;;;;11.90;3.90;;;;;;;20.57;37.37;95812.06;5048266;28;20111;-69
2021/06/23 09:15:59;;;;;;;8.52;3.70;;;;;;;19.88;38.07;95805.34;5047518;28;20152;-69
2021/06/23 09:18:30;;;;;;;9.45;4.50;;;;;;;19.84;37.83;95804.97;5042965;28;20107;-68
2021/06/23 09:21:04;;;;;;;7.45;4.57;;;;;;;19.72;37.99;95804.97;5032963;28;20104;-69
2021/06/23 09:23:43;;;;;;;10.43;5.07;;;;;;;19.79;38.92;95802.97;5034733;28;20069;-69
2021/06/23 09:26:12;;;;;;;10.05;4.00;;;;;;;19.85;38.97;95804.75;5046295;28;20579;-70
2021/06/23 09:28:37;;;;;;;8.55;5.47;;;;;;;20.20;37.58;95807.75;5045208;28;20081;-69
2021/06/23 09:31:06;;;;;;;6.70;3.55;;;;;;;20.25;37.35;95813.25;5068175;28;20065;-70
2021/06/23 09:33:31;;;;;;;8.85;5.90;;;;;;;20.76;35.67;95807.31;5049408;28;20097;-69
2021/06/23 09:35:59;;;;;;;7.25;3.50;;;;;;;21.24;36.73;95797.16;5045124;28;20104;-69
2021/06/23 09:38:37;;;;;;;7.88;4.53;;;;;;;21.62;35.21;95799.47;5050827;28;20101;-70
2021/06/23 09:41:16;;;;;;;7.30;4.82;;;;;;;21.95;34.63;95794.31;5045168;28;20430;-70
2021/06/23 09:43:42;;;;;;;5.88;3.25;;;;;;;22.56;33.91;95806.34;5061954;28;20376;-70
2021/06/23 09:46:19;;;;;;;12.95;8.48;;;;;;;22.73;33.44;95811.69;5032961;28;20144;-71
2021/06/23 09:48:45;;;;;;;9.13;6.00;;;;;;;22.58;33.40;95805.03;5039129;28;20110;-70
2021/06/23 09:51:16;;;;;;;7.67;3.13;;;;;;;23.04;33.35;95812.91;5051896;28;20080;-72
2021/06/23 09:53:41;;;;;;;14.88;4.72;;;;;;;22.67;33.82;95805.38;5047693;28;20672;-71
2021/06/23 09:56:26;;;;;;;6.82;5.28;;;;;;;23.03;33.90;95811.25;5033895;28;20231;-71
2021/06/23 09:58:54;;;;;;;5.95;3.60;;;;;;;23.34;31.48;95805.38;5030432;28;20115;-71
2021/06/23 10:01:20;;;;;;;6.35;3.95;;;;;;;23.73;32.01;95800.81;5051175;28;20655;-72
2021/06/23 10:03:58;;;;;;;7.53;4.40;;;;;;;23.71;31.91;95809.22;5044655;28;20104;-71
2021/06/23 10:06:31;;;;;;;6.30;3.78;;;;;;;23.88;30.79;95806.41;5053568;28;20139;-72
2021/06/23 10:09:35;;;;;;;6.75;3.30;;;;;;;24.06;31.48;95812.50;5044436;28;20112;-71
2021/06/23 10:12:06;;;;;;;6.95;2.95;;;;;;;24.23;30.23;95814.28;5045410;28;20076;-71
2021/06/23 10:14:34;;;;;;;3.80;2.80;;;;;;;24.40;29.90;95814.16;5045120;28;20125;-71
2021/06/23 10:17:00;;;;;;;6.55;3.83;;;;;;;24.19;31.28;95819.41;5073251;28;20170;-71
2021/06/23 10:19:27;;;;;;;5.55;3.20;;;;;;;24.15;31.10;95810.97;5061555;28;20429;-72
2021/06/23 10:21:53;;;;;;;6.25;3.00;;;;;;;23.81;31.56;95809.38;5046681;28;20215;-71
2021/06/23 10:24:19;;;;;;;4.70;2.97;;;;;;;23.43;31.89;95819.31;5041376;28;20441;-70
2021/06/23 10:26:49;;;;;;;6.88;4.13;;;;;;;23.09;32.21;95823.00;5025352;28;20098;-69
2021/06/23 10:29:40;;;;;;;6.40;3.40;;;;;;;22.76;32.26;95814.75;5041532;28;20597;-70
2021/06/23 10:32:07;;;;;;;6.53;3.50;;;;;;;22.76;32.10;95819.34;5055746;28;20080;-69
2021/06/23 10:34:33;;;;;;;5.35;3.00;;;;;;;23.08;32.37;95821.34;5041859;28;20168;-70
2021/06/23 10:36:59;;;;;;;4.60;3.25;;;;;;;24.07;31.08;95812.25;5028082;28;20827;-70
2021/06/23 10:39:29;;;;;;;8.07;3.42;;;;;;;22.99;33.17;95812.00;5047513;28;20550;-70
2021/06/23 10:42:00;;;;;;;5.72;3.40;;;;;;;22.97;32.67;95812.25;5043506;28;20600;-70
2021/06/23 10:44:27;;;;;;;4.97;3.65;;;;;;;22.27;34.09;95802.66;5043105;28;20090;-70
2021/06/23 10:46:57;;;;;;;6.03;3.10;;;;;;;22.15;35.31;95802.78;5029573;28;20116;-70
2021/06/23 10:49:41;;;;;;;3.75;3.20;;;;;;;21.25;35.30;95803.41;5045899;28;20232;-69
2021/06/23 10:52:22;;;;;;;6.43;3.45;;;;;;;20.89;36.70;95810.81;5046329;28;20398;-69
2021/06/23 10:54:51;;;;;;;6.60;3.45;;;;;;;20.66;36.81;95815.25;5049262;28;20194;-68
2021/06/23 10:57:40;;;;;;;5.93;3.40;;;;;;;20.16;37.43;95812.78;5043785;28;20582;-69
2021/06/23 11:00:12;;;;;;;5.55;3.75;;;;;;;20.02;37.86;95817.59;5059735;28;20159;-69
2021/06/23 11:02:41;;;;;;;6.72;3.30;;;;;;;19.75;37.91;95812.59;5048901;28;20557;-69
2021/06/23 11:05:09;;;;;;;5.97;3.25;;;;;;;19.54;38.74;95813.97;5047448;28;20117;-69
2021/06/23 11:07:39;;;;;;;6.40;3.47;;;;;;;19.33;38.54;95811.56;5055771;28;20099;-69
2021/06/23 11:10:14;;;;;;;5.03;3.25;;;;;;;19.42;39.57;95813.94;5051189;28;20105;-69
2021/06/23 11:13:00;;;;;;;6.70;3.40;;;;;;;19.36;40.25;95815.69;5040283;28;20247;-69
2021/06/23 11:15:34;;;;;;;10.77;3.92;;;;;;;19.46;39.91;95815.13;5044204;28;20097;-69
2021/06/23 11:18:30;;;;;;;5.07;3.60;;;;;;;19.72;39.67;95818.47;5045149;28;20115;-69
2021/06/23 11:21:02;;;;;;;7.25;4.00;;;;;;;19.74;39.94;95816.34;5049116;28;20108;-69
2021/06/23 11:23:55;;;;;;;8.95;4.35;;;;;;;19.76;39.01;95816.97;5061563;28;20595;-69
2021/06/23 11:26:23;;;;;;;5.22;3.70;;;;;;;20.13;39.54;95821.38;5048815;28;20113;-70
2021/06/23 11:28:50;;;;;;;7.60;4.25;;;;;;;20.44;38.35;95822.06;5057596;28;20150;-69
2021/06/23 11:31:15;;;;;;;5.97;4.00;;;;;;;20.59;38.50;95823.44;5047294;28;20153;-69
2021/06/23 11:33:42;;;;;;;8.98;5.28;;;;;;;20.97;37.04;95811.25;5050832;28;20192;-70
2021/06/23 11:36:09;;;;;;;7.13;3.73;;;;;;;21.96;36.42;95817.66;5046773;28;20081;-70
2021/06/23 11:38:34;;;;;;;9.75;3.38;;;;;;;22.43;35.35;95818.34;5049508;28;20112;-70
2021/06/23 11:41:01;;;;;;;8.00;3.80;;;;;;;22.81;34.30;95818.59;5067032;28;20114;-70
2021/06/23 11:43:27;;;;;;;7.93;3.53;;;;;;;23.17;33.00;95809.00;5033607;28;20113;-70
2021/06/23 11:45:52;;;;;;;6.50;3.50;;;;;;;24.18;32.58;95812.34;5046022;28;20097;-71
2021/06/23 11:48:18;;;;;;;5.78;3.40;;;;;;;24.94;29.52;95802.19;5069590;28;20091;-70
2021/06/23 11:50:44;;;;;;;5.00;3.00;;;;;;;25.29;28.37;95807.19;5050745;28;20204;-70
2021/06/23 11:53:10;;;;;;;6.15;3.03;;;;;;;25.32;28.94;95809.38;5059478;28;20602;-70